Time;durP1;ratioP1;P1;durP2;ratioP2;P2;SDS_P1;SDS_P2;PMS_P1;PMS_P2;Temp;Humidity;BMP_temperature;BMP_pressure;BME280_temperature;BME280_humidity;BME280_pressure;Samples;Min_cycle;Max_cycle;Signal;HPM_P1;HPM_P2
2020/12/05 00:00:15;;;;;;;24.80;17.20;;;2.60;99.90;;;;;;5073237;28;20196;-88
2020/12/05 00:02:40;;;;;;;24.40;15.77;;;2.60;99.90;;;;;;5055447;28;20240;-88
2020/12/05 00:05:06;;;;;;;26.27;16.67;;;2.50;99.90;;;;;;5055336;28;20185;-90
2020/12/05 00:07:32;;;;;;;25.97;16.33;;;2.50;99.90;;;;;;5055444;28;20200;-88
2020/12/05 00:09:57;;;;;;;23.47;15.27;;;2.50;99.90;;;;;;5055708;28;20191;-88
2020/12/05 00:12:23;;;;;;;25.53;15.77;;;2.50;99.90;;;;;;5055065;28;20217;-88
2020/12/05 00:14:48;;;;;;;26.43;17.37;;;2.40;99.90;;;;;;5073215;28;20174;-88
2020/12/05 00:17:14;;;;;;;27.13;18.77;;;2.40;99.90;;;;;;5055452;28;20510;-89
2020/12/05 00:19:42;;;;;;;23.40;16.00;;;2.40;99.90;;;;;;5073094;28;20199;-88
2020/12/05 00:22:08;;;;;;;21.93;16.37;;;2.40;99.90;;;;;;5072957;28;20673;-89
2020/12/05 00:24:34;;;;;;;29.87;17.93;;;2.40;99.90;;;;;;5073204;28;20426;-88
2020/12/05 00:26:59;;;;;;;27.57;17.73;;;2.30;99.90;;;;;;5072809;28;20900;-88
2020/12/05 00:29:25;;;;;;;27.37;17.80;;;2.30;99.90;;;;;;5074121;28;20285;-87
2020/12/05 00:31:54;;;;;;;28.30;16.97;;;2.30;99.90;;;;;;5076528;28;20218;-87
2020/12/05 00:34:20;;;;;;;27.57;17.00;;;2.30;99.90;;;;;;5058140;28;20655;-87
2020/12/05 00:36:46;;;;;;;25.93;16.33;;;2.30;99.90;;;;;;5058412;28;20421;-87
2020/12/05 00:39:12;;;;;;;27.03;15.63;;;2.30;99.90;;;;;;5076504;28;20415;-88
2020/12/05 00:41:37;;;;;;;24.20;16.53;;;2.20;99.90;;;;;;5075990;28;20895;-89
2020/12/05 00:44:03;;;;;;;29.67;18.90;;;2.20;99.90;;;;;;5076479;28;20186;-86
2020/12/05 00:46:29;;;;;;;28.10;16.27;;;2.10;99.90;;;;;;5058784;28;20213;-86
2020/12/05 00:48:54;;;;;;;27.13;15.97;;;2.00;99.90;;;;;;5058933;28;20860;-88
2020/12/05 00:51:20;;;;;;;28.37;17.87;;;2.10;99.90;;;;;;5058604;28;20209;-88
2020/12/05 00:53:45;;;;;;;31.57;17.70;;;2.00;99.90;;;;;;5076530;28;20179;-89
2020/12/05 00:56:18;;;;;;;31.90;18.97;;;2.00;99.90;;;;;;5058403;28;20179;-89
2020/12/05 00:58:43;;;;;;;30.90;19.57;;;2.00;99.90;;;;;;5076281;28;20200;-87
2020/12/05 01:01:11;;;;;;;23.87;16.17;;;2.00;99.90;;;;;;5075100;28;20403;-88
2020/12/05 01:03:36;;;;;;;28.83;18.20;;;2.00;99.90;;;;;;5058225;28;20184;-89
2020/12/05 01:06:02;;;;;;;32.60;18.50;;;2.00;99.90;;;;;;5076169;28;20410;-87
2020/12/05 01:08:28;;;;;;;33.13;19.80;;;2.00;99.90;;;;;;5058023;28;20250;-88
2020/12/05 01:10:54;;;;;;;30.10;18.13;;;2.00;99.90;;;;;;5057573;28;20268;-87
2020/12/05 01:13:20;;;;;;;27.53;16.83;;;2.00;99.90;;;;;;5058109;28;20180;-88
2020/12/05 01:15:45;;;;;;;29.67;17.77;;;2.00;99.90;;;;;;5075927;28;20504;-87
2020/12/05 01:18:11;;;;;;;26.60;15.87;;;1.90;99.90;;;;;;5075693;28;20262;-88
2020/12/05 01:20:36;;;;;;;27.40;17.60;;;1.90;99.90;;;;;;5075644;28;20169;-87
2020/12/05 01:23:03;;;;;;;26.87;18.57;;;2.00;99.90;;;;;;5057584;28;20231;-87
2020/12/05 01:25:28;;;;;;;28.83;19.63;;;2.00;99.90;;;;;;5074967;28;20512;-87
2020/12/05 01:27:54;;;;;;;35.37;20.93;;;1.90;99.90;;;;;;5057383;28;20455;-88
2020/12/05 01:30:19;;;;;;;30.50;20.00;;;1.90;99.90;;;;;;5075429;28;20698;-88
2020/12/05 01:32:45;;;;;;;28.77;19.73;;;1.90;99.90;;;;;;5075348;28;20292;-88
2020/12/05 01:35:11;;;;;;;32.80;20.70;;;2.00;99.90;;;;;;5075449;28;20247;-87
2020/12/05 01:37:36;;;;;;;28.97;19.10;;;2.00;99.90;;;;;;5057575;28;20212;-88
2020/12/05 01:40:02;;;;;;;31.33;21.97;;;2.00;99.90;;;;;;5074896;28;20188;-88
2020/12/05 01:42:28;;;;;;;31.40;19.40;;;2.10;99.90;;;;;;5074243;28;20177;-88
2020/12/05 01:44:54;;;;;;;29.30;20.63;;;2.10;99.90;;;;;;5057575;28;20908;-88
2020/12/05 01:47:23;;;;;;;26.43;18.10;;;2.10;99.90;;;;;;5057743;28;20172;-88
2020/12/05 01:49:49;;;;;;;28.30;19.00;;;2.10;99.90;;;;;;5057733;28;20656;-88
2020/12/05 01:52:17;;;;;;;35.23;19.40;;;2.10;99.90;;;;;;5075416;28;20420;-88
2020/12/05 01:54:42;;;;;;;30.40;19.57;;;2.10;99.90;;;;;;5075878;28;20521;-89
2020/12/05 01:57:09;;;;;;;32.23;20.57;;;2.10;99.90;;;;;;5057240;28;20433;-88
2020/12/05 01:59:34;;;;;;;30.23;19.70;;;2.10;99.90;;;;;;5057420;28;20178;-88
2020/12/05 02:02:02;;;;;;;29.90;18.20;;;2.10;99.90;;;;;;5074997;28;20777;-88
2020/12/05 02:04:33;;;;;;;31.10;19.77;;;2.10;99.90;;;;;;5057280;28;20602;-88
2020/12/05 02:07:16;;;;;;;35.80;20.10;;;2.10;99.90;;;;;;5075290;28;20402;-89
2020/12/05 02:09:45;;;;;;;26.47;17.40;;;2.10;99.90;;;;;;5057082;28;20973;-88
2020/12/05 02:12:29;;;;;;;30.13;18.83;;;2.10;99.90;;;;;;5074358;28;20514;-89
2020/12/05 02:15:03;;;;;;;29.13;18.97;;;2.10;99.90;;;;;;5074899;28;20422;-87
2020/12/05 02:17:30;;;;;;;30.77;21.43;;;2.10;99.90;;;;;;5056897;28;21078;-88
2020/12/05 02:19:56;;;;;;;37.00;19.93;;;2.10;99.90;;;;;;5074559;28;20423;-87
2020/12/05 02:22:27;;;;;;;34.93;21.40;;;2.20;99.90;;;;;;5056626;28;20924;-88
2020/12/05 02:24:54;;;;;;;31.67;20.70;;;2.20;99.90;;;;;;5056365;28;20451;-89
2020/12/05 02:27:20;;;;;;;30.30;21.40;;;2.10;99.90;;;;;;5074189;28;20408;-89
2020/12/05 02:29:46;;;;;;;34.67;20.90;;;2.10;99.90;;;;;;5073949;28;20528;-88
2020/12/05 02:32:12;;;;;;;28.70;19.17;;;2.10;99.90;;;;;;5046750;28;21064;-87
2020/12/05 02:34:37;;;;;;;32.83;21.30;;;2.10;99.90;;;;;;5038287;28;20175;-87
2020/12/05 02:37:10;;;;;;;39.17;20.73;;;2.20;99.90;;;;;;5037153;28;20268;-86
2020/12/05 02:39:38;;;;;;;34.57;20.47;;;2.20;99.90;;;;;;5036256;28;20176;-88
2020/12/05 02:42:05;;;;;;;30.80;20.80;;;2.20;99.90;;;;;;5041169;28;20414;-87
2020/12/05 02:44:30;;;;;;;29.33;19.50;;;2.10;99.90;;;;;;5053257;28;20901;-88
2020/12/05 02:47:00;;;;;;;33.07;20.80;;;2.10;99.90;;;;;;5047609;28;20410;-88
2020/12/05 02:49:27;;;;;;;31.90;21.13;;;2.10;99.90;;;;;;5038941;28;20218;-87
2020/12/05 02:51:52;;;;;;;38.60;23.03;;;2.10;99.90;;;;;;5047565;28;20930;-87
2020/12/05 02:54:18;;;;;;;37.07;23.00;;;2.10;99.90;;;;;;5040010;28;20211;-87
2020/12/05 02:56:44;;;;;;;31.63;20.53;;;2.10;99.90;;;;;;5044130;28;20224;-87
2020/12/05 02:59:11;;;;;;;33.20;20.53;;;2.10;99.90;;;;;;5044487;28;20633;-87
2020/12/05 03:01:36;;;;;;;32.97;20.70;;;2.20;99.90;;;;;;5041942;28;20334;-87
2020/12/05 03:04:02;;;;;;;34.97;20.70;;;2.20;99.90;;;;;;5040033;28;20449;-87
2020/12/05 03:06:27;;;;;;;36.57;22.57;;;2.20;99.90;;;;;;5038700;28;20183;-87
2020/12/05 03:08:53;;;;;;;32.47;21.77;;;2.30;99.90;;;;;;5041463;28;20212;-87
2020/12/05 03:11:19;;;;;;;35.10;20.83;;;2.20;99.90;;;;;;5042228;28;20537;-87
2020/12/05 03:13:44;;;;;;;34.43;19.40;;;2.30;99.90;;;;;;5046493;28;20180;-87
2020/12/05 03:16:10;;;;;;;34.50;20.40;;;2.30;99.90;;;;;;5039637;28;20160;-86
2020/12/05 03:18:35;;;;;;;24.67;17.60;;;2.30;99.90;;;;;;5037595;28;20174;-87
2020/12/05 03:21:01;;;;;;;35.60;22.27;;;2.30;99.90;;;;;;5038292;28;20169;-86
2020/12/05 03:23:26;;;;;;;40.57;23.70;;;2.40;99.90;;;;;;5061665;28;20520;-87
2020/12/05 03:25:56;;;;;;;37.90;21.83;;;2.40;99.90;;;;;;5041114;28;20194;-86
2020/12/05 03:28:23;;;;;;;35.40;22.47;;;2.40;99.90;;;;;;5045649;28;20350;-87
2020/12/05 03:30:49;;;;;;;29.17;19.70;;;2.40;99.90;;;;;;5039615;28;20501;-87
2020/12/05 03:33:14;;;;;;;35.77;22.20;;;2.50;99.90;;;;;;5070304;28;20540;-87
2020/12/05 03:35:40;;;;;;;41.13;23.77;;;2.50;99.90;;;;;;5072030;28;20159;-88
2020/12/05 03:38:06;;;;;;;37.83;22.90;;;2.60;99.90;;;;;;5072473;28;20518;-87
2020/12/05 03:40:31;;;;;;;42.47;22.60;;;2.60;99.90;;;;;;5054021;28;20176;-87
2020/12/05 03:42:57;;;;;;;34.93;23.23;;;2.60;99.90;;;;;;5054519;28;20172;-87
2020/12/05 03:45:22;;;;;;;39.33;23.30;;;2.60;99.90;;;;;;5072241;28;20179;-86
2020/12/05 03:47:48;;;;;;;35.90;20.73;;;2.70;99.90;;;;;;5072662;28;20201;-87
2020/12/05 03:50:14;;;;;;;37.50;20.70;;;2.70;99.90;;;;;;5054683;28;20181;-87
2020/12/05 03:52:39;;;;;;;33.90;21.83;;;2.70;99.90;;;;;;5054100;28;20171;-87
2020/12/05 03:55:05;;;;;;;36.40;22.40;;;2.70;99.90;;;;;;5053483;28;20169;-87
2020/12/05 03:57:30;;;;;;;37.30;23.37;;;2.70;99.90;;;;;;5048406;28;20230;-86
2020/12/05 03:59:56;;;;;;;37.07;21.40;;;2.80;99.90;;;;;;5053764;28;20621;-87
2020/12/05 04:02:21;;;;;;;35.87;22.27;;;2.80;99.90;;;;;;5071655;28;20778;-87
2020/12/05 04:04:47;;;;;;;34.67;21.53;;;2.90;99.90;;;;;;5073584;28;20205;-87
2020/12/05 04:07:13;;;;;;;31.47;19.90;;;2.90;99.90;;;;;;5076015;28;20192;-86
2020/12/05 04:09:38;;;;;;;34.10;20.90;;;3.00;99.90;;;;;;5058210;28;20176;-86
2020/12/05 04:12:04;;;;;;;31.53;22.00;;;3.00;99.90;;;;;;5057741;28;20202;-87
2020/12/05 04:14:29;;;;;;;28.90;20.00;;;3.00;99.90;;;;;;5075907;28;20705;-87
2020/12/05 04:16:55;;;;;;;35.43;20.73;;;3.00;99.90;;;;;;5074775;28;20175;-87
2020/12/05 04:19:20;;;;;;;35.27;21.93;;;3.10;99.90;;;;;;5074508;28;20177;-86
2020/12/05 04:21:49;;;;;;;31.53;22.33;;;3.10;99.90;;;;;;5073967;28;20174;-87
2020/12/05 04:24:15;;;;;;;34.80;19.73;;;3.10;99.90;;;;;;5073144;28;20169;-86
2020/12/05 04:26:41;;;;;;;27.70;17.40;;;3.10;99.90;;;;;;5057567;28;20437;-86
2020/12/05 04:29:06;;;;;;;34.17;22.17;;;3.10;99.90;;;;;;5075438;28;20464;-87
2020/12/05 04:31:32;;;;;;;33.30;20.47;;;3.10;99.90;;;;;;5057387;28;20574;-87
2020/12/05 04:33:58;;;;;;;30.83;21.30;;;3.00;99.90;;;;;;5075719;28;20173;-86
2020/12/05 04:36:23;;;;;;;27.77;19.50;;;3.10;99.90;;;;;;5075555;28;20168;-87
2020/12/05 04:38:49;;;;;;;39.10;22.80;;;3.00;99.90;;;;;;5058188;28;20691;-87
2020/12/05 04:41:14;;;;;;;34.03;22.30;;;3.00;99.90;;;;;;5074137;28;20176;-87
2020/12/05 04:43:41;;;;;;;35.13;21.63;;;3.00;99.90;;;;;;5057801;28;20171;-86
2020/12/05 04:46:06;;;;;;;36.10;22.80;;;3.00;99.90;;;;;;5057922;28;20174;-86
2020/12/05 04:48:33;;;;;;;28.90;20.43;;;3.00;99.90;;;;;;5075151;28;20476;-86
2020/12/05 04:51:03;;;;;;;32.23;21.20;;;3.00;99.90;;;;;;5074080;28;20168;-87
2020/12/05 04:53:30;;;;;;;34.17;21.97;;;3.00;99.90;;;;;;5057591;28;20473;-86
2020/12/05 04:56:00;;;;;;;35.73;21.27;;;3.00;99.90;;;;;;5057364;28;20416;-88
2020/12/05 04:58:27;;;;;;;34.07;23.43;;;3.00;99.90;;;;;;5075390;28;20522;-88
2020/12/05 05:00:55;;;;;;;32.60;21.30;;;3.00;99.90;;;;;;5075347;28;20415;-87
2020/12/05 05:03:23;;;;;;;36.67;21.17;;;3.10;99.90;;;;;;5057199;28;20451;-87
2020/12/05 05:05:51;;;;;;;34.97;20.80;;;3.10;99.90;;;;;;5075034;28;20468;-88
2020/12/05 05:08:16;;;;;;;37.00;22.53;;;3.20;99.90;;;;;;5057153;28;20537;-87
2020/12/05 05:10:42;;;;;;;31.60;22.83;;;3.20;99.90;;;;;;5075269;28;20548;-88
2020/12/05 05:13:19;;;;;;;32.67;19.97;;;3.20;99.90;;;;;;5074224;28;20215;-87
2020/12/05 05:15:45;;;;;;;33.90;20.97;;;3.30;99.90;;;;;;5072473;28;20451;-88
2020/12/05 05:18:12;;;;;;;32.63;21.10;;;3.30;99.90;;;;;;5057664;28;20797;-88
2020/12/05 05:20:43;;;;;;;37.53;22.50;;;3.30;99.90;;;;;;5074093;28;20439;-87
2020/12/05 05:23:14;;;;;;;30.13;19.63;;;3.40;99.90;;;;;;5075056;28;20493;-88
2020/12/05 05:25:49;;;;;;;33.57;21.20;;;3.30;99.90;;;;;;5056988;28;20410;-87
2020/12/05 05:28:23;;;;;;;38.37;22.77;;;3.40;99.90;;;;;;5074324;28;20548;-87
2020/12/05 05:31:06;;;;;;;30.87;19.40;;;3.40;99.90;;;;;;5074510;28;20417;-87
2020/12/05 05:33:49;;;;;;;32.40;20.50;;;3.40;99.90;;;;;;5074668;28;20426;-87
2020/12/05 05:36:20;;;;;;;30.90;18.40;;;3.40;99.90;;;;;;5056793;28;20415;-87
2020/12/05 05:39:06;;;;;;;30.80;20.43;;;3.40;99.90;;;;;;5073888;28;20949;-87
2020/12/05 05:41:33;;;;;;;31.43;24.07;;;3.30;99.90;;;;;;5056388;28;20416;-88
2020/12/05 05:44:04;;;;;;;33.23;21.37;;;3.30;99.90;;;;;;5057107;28;20933;-87
2020/12/05 05:46:36;;;;;;;33.97;21.13;;;3.20;99.90;;;;;;5057398;28;20411;-88
2020/12/05 05:49:03;;;;;;;35.50;23.30;;;3.20;99.90;;;;;;5075063;28;20516;-88
2020/12/05 05:51:44;;;;;;;29.87;21.17;;;3.20;99.90;;;;;;5074652;28;20415;-87
2020/12/05 05:54:19;;;;;;;36.70;22.27;;;3.20;99.90;;;;;;5074604;28;20469;-88
2020/12/05 05:56:56;;;;;;;32.50;19.37;;;3.30;99.90;;;;;;5072850;28;20468;-87
2020/12/05 05:59:24;;;;;;;32.00;21.70;;;3.30;99.90;;;;;;5054615;28;20420;-87
2020/12/05 06:01:51;;;;;;;29.20;21.30;;;3.30;99.90;;;;;;5057312;28;20468;-88
2020/12/05 06:04:31;;;;;;;37.50;22.00;;;3.20;99.90;;;;;;5056642;28;20421;-89
2020/12/05 06:06:59;;;;;;;34.13;21.70;;;3.20;99.90;;;;;;5074300;28;20905;-89
2020/12/05 06:09:27;;;;;;;37.10;22.40;;;3.20;99.90;;;;;;5074157;28;20819;-88
2020/12/05 06:11:57;;;;;;;33.33;22.27;;;3.20;99.90;;;;;;5056491;28;20568;-86
2020/12/05 06:14:24;;;;;;;30.50;20.33;;;3.30;99.90;;;;;;5056234;28;20427;-87
2020/12/05 06:16:51;;;;;;;33.70;21.80;;;3.30;99.90;;;;;;5074130;28;20534;-88
2020/12/05 06:19:18;;;;;;;30.57;21.43;;;3.40;99.90;;;;;;5072622;28;20425;-86
2020/12/05 06:21:49;;;;;;;34.03;22.40;;;3.40;99.90;;;;;;5072365;28;20419;-86
2020/12/05 06:24:16;;;;;;;28.70;18.90;;;3.40;99.90;;;;;;5070921;28;20411;-87
2020/12/05 06:26:44;;;;;;;34.20;21.13;;;3.40;99.90;;;;;;5071168;28;20431;-87
2020/12/05 06:29:11;;;;;;;31.97;21.93;;;3.40;99.90;;;;;;5072127;28;20476;-88
2020/12/05 06:31:46;;;;;;;34.80;21.10;;;3.40;99.90;;;;;;5073387;28;20447;-87
2020/12/05 06:34:41;;;;;;;34.87;21.57;;;3.40;99.90;;;;;;5055487;28;21241;-87
2020/12/05 06:37:30;;;;;;;31.87;21.73;;;3.40;99.90;;;;;;5064091;28;20412;-89
2020/12/05 06:40:04;;;;;;;36.63;22.27;;;3.30;99.90;;;;;;5071457;28;20447;-87
2020/12/05 06:42:38;;;;;;;31.83;22.10;;;3.20;99.90;;;;;;5073363;28;20712;-87
2020/12/05 06:45:05;;;;;;;36.03;21.37;;;3.20;99.90;;;;;;5073314;28;20436;-87
2020/12/05 06:47:30;;;;;;;33.47;21.13;;;3.10;99.90;;;;;;5073361;28;20453;-88
2020/12/05 06:49:56;;;;;;;33.30;22.33;;;3.10;99.90;;;;;;5056320;28;20423;-87
2020/12/05 06:52:24;;;;;;;38.37;23.20;;;3.00;99.90;;;;;;5073547;28;20172;-88
2020/12/05 06:55:14;;;;;;;34.90;21.13;;;3.00;99.90;;;;;;5073298;28;20411;-89
2020/12/05 06:57:42;;;;;;;34.73;20.97;;;3.00;99.90;;;;;;5068640;28;20431;-87
2020/12/05 07:00:26;;;;;;;34.73;22.50;;;3.00;99.90;;;;;;5055550;28;20421;-87
2020/12/05 07:02:55;;;;;;;32.90;20.10;;;3.00;99.90;;;;;;5073343;28;20903;-88
2020/12/05 07:05:21;;;;;;;37.37;21.50;;;3.10;99.90;;;;;;5072483;28;20416;-88
2020/12/05 07:07:49;;;;;;;42.00;24.77;;;3.00;99.90;;;;;;5072340;28;20512;-88
2020/12/05 07:10:16;;;;;;;34.73;21.70;;;3.00;99.90;;;;;;5073210;28;20406;-88
2020/12/05 07:12:45;;;;;;;35.40;24.07;;;3.00;99.90;;;;;;5055971;28;20423;-89
2020/12/05 07:15:29;;;;;;;36.63;21.40;;;3.00;99.90;;;;;;5056685;28;20428;-88
2020/12/05 07:17:56;;;;;;;34.27;21.87;;;3.00;99.90;;;;;;5057231;28;20929;-88
2020/12/05 07:20:23;;;;;;;38.97;23.70;;;3.00;99.90;;;;;;5076399;28;20421;-89
2020/12/05 07:22:50;;;;;;;38.13;23.57;;;3.00;99.90;;;;;;5058867;28;20521;-88
2020/12/05 07:25:16;;;;;;;35.87;22.60;;;3.00;99.90;;;;;;5073751;28;20421;-87
2020/12/05 07:27:42;;;;;;;37.53;22.73;;;3.00;99.90;;;;;;5073892;28;20452;-89
2020/12/05 07:30:09;;;;;;;32.43;22.33;;;3.10;99.90;;;;;;5073925;28;20170;-90
2020/12/05 07:32:37;;;;;;;36.07;22.70;;;3.10;99.90;;;;;;5073525;28;20445;-87
2020/12/05 07:35:05;;;;;;;30.00;17.80;;;3.10;99.90;;;;;;5055561;28;20413;-88
2020/12/05 07:37:33;;;;;;;34.47;21.13;;;3.10;99.90;;;;;;5055227;28;20436;-88
2020/12/05 07:39:59;;;;;;;41.27;23.60;;;3.10;99.90;;;;;;5059118;28;20511;-88
2020/12/05 07:42:41;;;;;;;27.17;19.10;;;3.10;99.90;;;;;;5059689;28;20924;-89
2020/12/05 07:45:12;;;;;;;35.90;21.13;;;3.10;99.90;;;;;;5059711;28;20176;-87
2020/12/05 07:47:39;;;;;;;34.77;21.50;;;3.20;99.90;;;;;;5059539;28;20458;-86
2020/12/05 07:50:06;;;;;;;37.13;22.07;;;3.20;99.90;;;;;;5077586;28;20429;-88
2020/12/05 07:52:32;;;;;;;32.63;22.10;;;3.20;99.90;;;;;;5059568;28;21005;-89
2020/12/05 07:55:00;;;;;;;38.03;21.90;;;3.20;99.90;;;;;;5059267;28;20474;-88
2020/12/05 07:57:27;;;;;;;30.30;23.13;;;3.30;99.90;;;;;;5059294;28;20250;-88
2020/12/05 08:00:07;;;;;;;28.50;20.47;;;3.30;99.90;;;;;;5059446;28;20421;-88
2020/12/05 08:02:35;;;;;;;35.63;22.03;;;3.30;99.90;;;;;;5077111;28;20412;-87
2020/12/05 08:05:44;;;;;;;33.77;20.33;;;3.30;99.90;;;;;;5077179;28;20418;-89
2020/12/05 08:08:14;;;;;;;30.60;20.70;;;3.30;99.90;;;;;;5050032;28;20555;-88
2020/12/05 08:10:40;;;;;;;37.53;22.67;;;3.30;99.90;;;;;;5076738;28;20389;-87
2020/12/05 08:13:20;;;;;;;36.30;20.80;;;3.30;99.90;;;;;;5059241;28;20421;-87
2020/12/05 08:16:01;;;;;;;33.27;22.20;;;3.30;99.90;;;;;;5077037;28;20169;-88
2020/12/05 08:18:28;;;;;;;38.37;22.67;;;3.30;99.90;;;;;;5077287;28;20419;-90
2020/12/05 08:20:54;;;;;;;32.17;22.17;;;3.30;99.90;;;;;;5077502;28;20893;-89
2020/12/05 08:23:28;;;;;;;32.17;20.70;;;3.30;99.90;;;;;;5059496;28;20458;-89
2020/12/05 08:26:16;;;;;;;37.07;21.87;;;3.30;99.90;;;;;;5059442;28;20414;-91
2020/12/05 08:28:43;;;;;;;29.67;20.47;;;3.30;99.90;;;;;;5077372;28;20472;-90
2020/12/05 08:31:13;;;;;;;39.60;24.13;;;3.30;99.90;;;;;;5078182;28;20505;-89
2020/12/05 08:33:48;;;;;;;34.67;22.30;;;3.20;99.90;;;;;;5060178;28;20473;-89
2020/12/05 08:36:22;;;;;;;29.07;18.77;;;3.10;99.90;;;;;;5059402;28;20959;-89
2020/12/05 08:38:48;;;;;;;34.43;21.47;;;3.10;99.90;;;;;;5059128;28;20781;-90
2020/12/05 08:41:14;;;;;;;39.70;22.40;;;3.10;99.90;;;;;;5059004;28;20980;-90
2020/12/05 08:43:40;;;;;;;35.90;21.90;;;3.10;99.90;;;;;;5059871;28;20419;-91
2020/12/05 08:46:19;;;;;;;28.63;20.20;;;3.10;99.90;;;;;;5077116;28;20553;-88
2020/12/05 08:48:45;;;;;;;36.47;21.10;;;3.10;99.90;;;;;;5076474;28;20207;-90
2020/12/05 08:51:11;;;;;;;35.57;21.53;;;3.10;99.90;;;;;;5076168;28;20407;-89
2020/12/05 08:53:37;;;;;;;38.63;22.80;;;3.20;99.90;;;;;;5076695;28;20169;-89
2020/12/05 08:56:02;;;;;;;31.07;21.70;;;3.20;99.90;;;;;;5076466;28;20169;-91
2020/12/05 08:58:45;;;;;;;32.97;20.97;;;3.20;99.90;;;;;;5058971;28;20287;-90
2020/12/05 09:01:11;;;;;;;30.27;21.13;;;3.20;99.90;;;;;;5077105;28;20182;-89
2020/12/05 09:03:38;;;;;;;36.37;23.47;;;3.20;99.90;;;;;;5076320;28;20433;-89
2020/12/05 09:06:04;;;;;;;36.13;23.67;;;3.20;99.90;;;;;;5077062;28;20417;-90
2020/12/05 09:08:30;;;;;;;34.60;21.80;;;3.20;99.90;;;;;;5075530;28;20473;-89
2020/12/05 09:10:55;;;;;;;30.73;20.00;;;3.20;99.90;;;;;;5058503;28;20524;-90
2020/12/05 09:13:22;;;;;;;34.47;21.80;;;3.20;99.90;;;;;;5077580;28;20177;-89
2020/12/05 09:15:57;;;;;;;35.50;23.13;;;3.20;99.90;;;;;;5059416;28;20549;-90
2020/12/05 09:18:23;;;;;;;30.60;19.80;;;3.20;99.90;;;;;;5076285;28;20524;-89
2020/12/05 09:20:48;;;;;;;34.23;21.30;;;3.30;99.90;;;;;;5058010;28;20926;-89
2020/12/05 09:23:14;;;;;;;31.97;20.93;;;3.80;99.90;;;;;;5058143;28;20430;-88
2020/12/05 09:25:41;;;;;;;34.60;23.03;;;3.80;99.90;;;;;;5060596;28;20449;-89
2020/12/05 09:28:16;;;;;;;28.90;20.40;;;3.90;99.90;;;;;;5079456;28;20223;-91
2020/12/05 09:30:42;;;;;;;33.47;19.93;;;3.70;99.90;;;;;;5059235;28;20444;-89
2020/12/05 09:33:13;;;;;;;32.10;21.50;;;3.60;99.90;;;;;;5076299;28;20462;-87
2020/12/05 09:35:38;;;;;;;34.00;20.93;;;3.50;99.90;;;;;;5058286;28;20184;-91
2020/12/05 09:38:04;;;;;;;30.00;19.37;;;3.50;99.90;;;;;;5058712;28;20426;-89
2020/12/05 09:40:30;;;;;;;32.47;21.10;;;3.40;99.90;;;;;;5075871;28;20225;-89
2020/12/05 09:42:58;;;;;;;37.10;21.90;;;3.40;99.90;;;;;;5076442;28;20177;-89
2020/12/05 09:45:24;;;;;;;31.53;20.43;;;3.40;99.90;;;;;;5076393;28;20807;-90
2020/12/05 09:47:50;;;;;;;34.27;21.53;;;3.40;99.90;;;;;;5076546;28;20454;-89
2020/12/05 09:50:15;;;;;;;33.33;19.90;;;3.30;99.90;;;;;;5075712;28;20430;-89
2020/12/05 09:52:42;;;;;;;32.40;22.97;;;3.40;99.90;;;;;;5060354;28;20441;-90
2020/12/05 09:55:08;;;;;;;32.07;19.90;;;3.40;99.90;;;;;;5077830;28;20174;-87
2020/12/05 09:57:34;;;;;;;33.50;22.17;;;3.40;99.90;;;;;;5076144;28;20403;-90
2020/12/05 10:00:00;;;;;;;38.37;23.13;;;3.40;99.90;;;;;;5075578;28;20421;-90
2020/12/05 10:02:25;;;;;;;30.53;19.70;;;3.50;99.90;;;;;;5074877;28;20192;-89
2020/12/05 10:04:51;;;;;;;38.70;22.63;;;3.50;99.90;;;;;;5057815;28;20188;-90
2020/12/05 10:07:17;;;;;;;32.07;21.10;;;3.60;99.90;;;;;;5075570;28;20169;-88
2020/12/05 10:09:43;;;;;;;35.73;22.07;;;3.70;99.90;;;;;;5057275;28;20204;-89
2020/12/05 10:12:08;;;;;;;36.33;22.33;;;3.70;99.90;;;;;;5057381;28;20195;-89
2020/12/05 10:14:34;;;;;;;30.70;20.53;;;3.70;99.90;;;;;;5075394;28;20168;-89
2020/12/05 10:17:00;;;;;;;34.23;22.63;;;3.80;99.90;;;;;;5075421;28;20631;-90
2020/12/05 10:19:25;;;;;;;37.83;22.33;;;3.70;99.90;;;;;;5057357;28;20190;-90
2020/12/05 10:21:51;;;;;;;34.90;20.37;;;3.60;99.90;;;;;;5075015;28;20200;-91
2020/12/05 10:24:18;;;;;;;34.50;22.30;;;3.60;99.90;;;;;;5057112;28;20291;-90
2020/12/05 10:26:52;;;;;;;32.73;21.83;;;3.60;99.90;;;;;;5075059;28;20231;-91
2020/12/05 10:29:18;;;;;;;34.27;21.27;;;3.60;99.90;;;;;;5057283;28;20470;-90
2020/12/05 10:31:45;;;;;;;32.67;21.87;;;3.60;99.90;;;;;;5057056;28;20455;-91
2020/12/05 10:34:11;;;;;;;33.10;20.10;;;3.70;99.90;;;;;;5075115;28;20183;-90
2020/12/05 10:36:36;;;;;;;29.47;18.57;;;3.70;99.90;;;;;;5075136;28;20410;-89
2020/12/05 10:39:03;;;;;;;28.33;19.40;;;3.80;99.90;;;;;;5057881;28;20442;-88
2020/12/05 10:41:28;;;;;;;32.70;22.10;;;3.70;99.90;;;;;;5058045;28;20200;-90
2020/12/05 10:43:54;;;;;;;27.30;20.57;;;3.80;99.90;;;;;;5060316;28;20931;-90
2020/12/05 10:46:19;;;;;;;34.30;19.40;;;3.90;99.90;;;;;;5057921;28;20177;-90
2020/12/05 10:48:46;;;;;;;35.40;21.70;;;3.90;99.90;;;;;;5057363;28;20707;-89
2020/12/05 10:51:11;;;;;;;39.03;20.87;;;4.00;99.90;;;;;;5074220;28;20472;-89
2020/12/05 10:53:37;;;;;;;32.07;21.90;;;4.00;99.90;;;;;;5075462;28;20188;-88
2020/12/05 10:56:02;;;;;;;31.67;21.53;;;4.00;99.90;;;;;;5057745;28;20177;-90
2020/12/05 10:58:28;;;;;;;28.90;21.67;;;4.10;99.90;;;;;;5075347;28;20211;-89
2020/12/05 11:00:53;;;;;;;31.07;21.80;;;4.10;99.90;;;;;;5075024;28;20620;-89
2020/12/05 11:03:19;;;;;;;40.97;23.00;;;4.20;99.90;;;;;;5074852;28;20172;-89
2020/12/05 11:05:45;;;;;;;33.30;20.50;;;4.20;99.90;;;;;;5073649;28;20338;-87
2020/12/05 11:08:10;;;;;;;33.33;21.40;;;4.30;99.90;;;;;;5073261;28;20212;-86
2020/12/05 11:10:36;;;;;;;30.07;20.30;;;4.40;99.90;;;;;;5072957;28;20639;-86
2020/12/05 11:13:01;;;;;;;30.73;19.47;;;4.40;99.90;;;;;;5055253;28;20188;-89
2020/12/05 11:15:27;;;;;;;33.53;21.60;;;4.50;99.90;;;;;;5058676;28;20184;-88
2020/12/05 11:17:52;;;;;;;26.60;19.50;;;4.70;99.90;;;;;;5074615;28;20318;-89
2020/12/05 11:20:20;;;;;;;29.73;20.70;;;4.90;99.90;;;;;;5075037;28;20554;-87
2020/12/05 11:22:45;;;;;;;28.40;17.23;;;5.20;99.90;;;;;;5057505;28;20259;-89
2020/12/05 11:25:13;;;;;;;26.20;18.97;;;5.60;99.90;;;;;;5056713;28;20474;-89
2020/12/05 11:27:38;;;;;;;28.50;18.57;;;5.90;99.90;;;;;;5056939;28;20199;-87
2020/12/05 11:30:04;;;;;;;27.97;17.67;;;6.30;99.90;;;;;;5054541;28;20463;-88
2020/12/05 11:32:30;;;;;;;32.80;18.80;;;6.50;99.90;;;;;;5071522;28;20255;-89
2020/12/05 11:34:55;;;;;;;31.33;19.90;;;6.80;99.90;;;;;;5074048;28;20263;-89
2020/12/05 11:37:21;;;;;;;30.60;19.37;;;6.80;99.90;;;;;;5058220;28;20721;-88
2020/12/05 11:39:46;;;;;;;24.93;18.13;;;6.70;99.90;;;;;;5072960;28;20177;-89
2020/12/05 11:42:12;;;;;;;28.13;18.77;;;6.90;99.90;;;;;;5072694;28;20271;-89
2020/12/05 11:44:38;;;;;;;28.43;16.77;;;7.00;99.90;;;;;;5073878;28;20173;-90
2020/12/05 11:47:03;;;;;;;27.50;18.23;;;6.80;99.90;;;;;;5073742;28;20230;-87
2020/12/05 11:49:29;;;;;;;25.20;17.23;;;6.60;99.90;;;;;;5073649;28;20212;-88
2020/12/05 11:51:57;;;;;;;22.10;15.50;;;6.50;99.90;;;;;;5074412;28;20174;-89
2020/12/05 11:54:23;;;;;;;26.77;15.70;;;6.20;99.90;;;;;;5055198;28;20547;-87
2020/12/05 11:56:49;;;;;;;26.20;17.10;;;6.20;99.90;;;;;;5073720;28;20411;-90
2020/12/05 11:59:15;;;;;;;20.53;15.50;;;6.10;99.90;;;;;;5073771;28;20416;-89
2020/12/05 12:01:41;;;;;;;22.50;15.17;;;6.10;99.90;;;;;;5073454;28;20925;-91
2020/12/05 12:04:07;;;;;;;24.83;17.07;;;6.20;99.90;;;;;;5056087;28;20264;-89
2020/12/05 12:06:33;;;;;;;29.57;20.20;;;6.20;99.90;;;;;;5073722;28;20400;-89
2020/12/05 12:08:58;;;;;;;22.90;18.20;;;6.30;99.90;;;;;;5073775;28;20802;-88
2020/12/05 12:11:24;;;;;;;28.40;17.23;;;6.40;99.90;;;;;;5056763;28;20177;-90
2020/12/05 12:13:49;;;;;;;24.10;17.23;;;6.40;99.90;;;;;;5057609;28;20185;-89
2020/12/05 12:16:16;;;;;;;21.97;15.13;;;6.30;99.90;;;;;;5073485;28;20566;-89
2020/12/05 12:18:42;;;;;;;20.13;14.57;;;6.20;99.90;;;;;;5073189;28;20237;-90
2020/12/05 12:21:08;;;;;;;23.33;14.53;;;6.10;99.90;;;;;;5073377;28;20423;-88
2020/12/05 12:23:34;;;;;;;19.23;13.00;;;6.10;99.90;;;;;;5071365;28;20451;-88
2020/12/05 12:26:00;;;;;;;20.40;13.90;;;6.10;99.90;;;;;;5073802;28;20180;-86
2020/12/05 12:28:26;;;;;;;19.80;13.10;;;6.10;99.90;;;;;;5073648;28;20467;-87
2020/12/05 12:30:52;;;;;;;22.80;15.33;;;6.20;99.90;;;;;;5058177;28;20799;-88
2020/12/05 12:33:17;;;;;;;20.57;14.40;;;6.20;99.90;;;;;;5075818;28;20227;-86
2020/12/05 12:35:47;;;;;;;19.27;13.70;;;6.30;99.90;;;;;;5057607;28;20219;-88
2020/12/05 12:38:13;;;;;;;21.37;14.37;;;6.20;99.90;;;;;;5058707;28;20231;-88